Time;durP1;ratioP1;P1;durP2;ratioP2;P2;SDS_P1;SDS_P2;PMS_P1;PMS_P2;Temp;Humidity;BMP_temperature;BMP_pressure;BME280_temperature;BME280_humidity;BME280_pressure;Samples;Min_cycle;Max_cycle;Signal;HPM_P1;HPM_P2
2022/05/03 00:01:02;;;;;;;7.22;5.32;;;;;;;;;;5040598;28;20033;-64
2022/05/03 00:03:30;;;;;;;8.23;5.15;;;;;;;;;;5037591;28;20045;-64
2022/05/03 00:06:12;;;;;;;10.70;5.50;;;;;;;;;;5040560;28;20052;-64
2022/05/03 00:08:39;;;;;;;6.53;5.13;;;;;;;;;;5043999;28;20052;-64
2022/05/03 00:11:23;;;;;;;7.07;5.32;;;;;;;;;;5045010;28;21798;-64
2022/05/03 00:13:54;;;;;;;7.30;5.00;;;;;;;;;;5039477;28;20061;-64
2022/05/03 00:16:20;;;;;;;7.60;5.70;;;;;;;;;;5020107;28;20067;-64
2022/05/03 00:18:47;;;;;;;6.38;4.95;;;;;;;;;;5020899;28;20143;-64
2022/05/03 00:21:13;;;;;;;9.77;5.60;;;;;;;;;;5039303;28;20098;-64
2022/05/03 00:23:40;;;;;;;7.18;4.97;;;;;;;;;;5023517;28;20052;-64
2022/05/03 00:26:06;;;;;;;6.78;5.47;;;;;;;;;;5015944;28;20057;-64
2022/05/03 00:28:33;;;;;;;8.02;6.13;;;;;;;;;;5016444;28;20045;-64
2022/05/03 00:30:59;;;;;;;9.20;5.13;;;;;;;;;;5031465;28;20041;-64
2022/05/03 00:33:27;;;;;;;8.93;6.38;;;;;;;;;;5019483;28;20053;-64
2022/05/03 00:35:53;;;;;;;8.90;5.82;;;;;;;;;;5022837;28;20047;-64
2022/05/03 00:38:19;;;;;;;8.35;5.18;;;;;;;;;;5044661;28;20076;-64
2022/05/03 00:40:48;;;;;;;7.53;4.93;;;;;;;;;;5004261;28;20037;-64
2022/05/03 00:43:18;;;;;;;7.25;5.35;;;;;;;;;;5045494;28;20033;-64
2022/05/03 00:45:55;;;;;;;7.28;5.18;;;;;;;;;;5020109;28;20436;-64
2022/05/03 00:48:21;;;;;;;7.05;4.70;;;;;;;;;;5022828;28;20048;-64
2022/05/03 00:50:58;;;;;;;6.65;5.35;;;;;;;;;;5032539;28;20042;-64
2022/05/03 00:53:27;;;;;;;8.40;5.75;;;;;;;;;;5035616;28;20501;-64
2022/05/03 00:56:14;;;;;;;7.65;5.35;;;;;;;;;;5034938;28;20034;-64
2022/05/03 00:59:03;;;;;;;7.10;5.45;;;;;;;;;;5031824;28;20049;-64
2022/05/03 01:01:32;;;;;;;8.40;6.05;;;;;;;;;;5013954;28;20103;-65
2022/05/03 01:04:08;;;;;;;8.10;6.30;;;;;;;;;;5050839;28;20048;-65
2022/05/03 01:07:07;;;;;;;9.75;6.40;;;;;;;;;;5026368;28;20434;-65
2022/05/03 01:09:36;;;;;;;10.05;6.28;;;;;;;;;;4963669;28;20078;-66
2022/05/03 01:12:23;;;;;;;5.78;4.75;;;;;;;;;;5023071;28;20493;-65
2022/05/03 01:15:06;;;;;;;9.13;6.28;;;;;;;;;;5043845;28;20042;-65
2022/05/03 01:17:45;;;;;;;9.20;5.90;;;;;;;;;;5033184;28;20388;-65
2022/05/03 01:20:21;;;;;;;7.15;5.90;;;;;;;;;;5015106;28;20485;-65
2022/05/03 01:23:06;;;;;;;9.30;6.25;;;;;;;;;;5039203;28;20044;-65
2022/05/03 01:26:19;;;;;;;10.63;6.40;;;;;;;;;;5042080;28;20041;-65
2022/05/03 01:28:48;;;;;;;;;;;;;;;;;;4951774;28;20457;-65
2022/05/03 01:31:24;;;;;;;9.32;6.72;;;;;;;;;;4937308;29;20009;-65
2022/05/03 01:34:01;;;;;;;12.10;7.25;;;;;;;;;;4999006;28;20045;-65
2022/05/03 01:36:40;;;;;;;8.27;5.93;;;;;;;;;;5031748;28;20048;-65
2022/05/03 01:39:27;;;;;;;9.25;6.57;;;;;;;;;;5040704;28;20037;-66
2022/05/03 01:42:25;;;;;;;9.15;6.55;;;;;;;;;;5031290;28;20052;-66
2022/05/03 01:45:05;;;;;;;8.80;6.78;;;;;;;;;;4963611;28;20132;-65
2022/05/03 01:47:53;;;;;;;11.63;6.60;;;;;;;;;;5023276;28;20041;-66
2022/05/03 01:50:57;;;;;;;9.85;7.10;;;;;;;;;;5049572;28;20047;-66
2022/05/03 01:53:42;;;;;;;8.60;6.55;;;;;;;;;;4956302;28;20047;-66
2022/05/03 01:56:27;;;;;;;9.07;6.80;;;;;;;;;;5040293;28;20052;-66
2022/05/03 01:59:19;;;;;;;11.13;6.95;;;;;;;;;;5030717;28;20045;-65
2022/05/03 02:02:00;;;;;;;9.60;6.75;;;;;;;;;;5024041;28;20132;-66
2022/05/03 02:04:39;;;;;;;11.57;7.65;;;;;;;;;;5028120;28;20053;-67
2022/05/03 02:07:12;;;;;;;9.57;7.13;;;;;;;;;;5029341;28;20160;-66
2022/05/03 02:10:03;;;;;;;11.52;7.07;;;;;;;;;;5018976;28;20048;-66
2022/05/03 02:12:59;;;;;;;9.10;6.50;;;;;;;;;;5047093;28;20040;-66
2022/05/03 02:15:40;;;;;;;11.20;6.90;;;;;;;;;;5031928;28;20090;-66
2022/05/03 02:18:07;;;;;;;7.32;5.78;;;;;;;;;;5025529;28;20037;-66
2022/05/03 02:20:55;;;;;;;11.05;6.97;;;;;;;;;;5013855;28;20054;-66
2022/05/03 02:23:24;;;;;;;10.48;8.13;;;;;;;;;;5018382;28;20096;-66
2022/05/03 02:26:15;;;;;;;10.07;8.10;;;;;;;;;;5036744;28;20045;-66
2022/05/03 02:29:00;;;;;;;11.15;7.78;;;;;;;;;;5021291;28;20075;-66
2022/05/03 02:31:40;;;;;;;10.32;6.88;;;;;;;;;;5034926;28;20041;-66
2022/05/03 02:34:55;;;;;;;11.27;7.25;;;;;;;;;;5044225;28;20431;-66
2022/05/03 02:37:37;;;;;;;12.00;7.80;;;;;;;;;;5035536;28;20048;-66
2022/05/03 02:40:42;;;;;;;9.82;6.93;;;;;;;;;;4959114;28;20066;-66
2022/05/03 02:43:11;;;;;;;;;;;;;;;;;;4902352;29;20537;-66
2022/05/03 02:45:43;;;;;;;10.82;8.15;;;;;;;;;;4904722;29;20331;-66
2022/05/03 02:48:27;;;;;;;12.40;7.85;;;;;;;;;;4991539;28;20586;-68
2022/05/03 02:51:22;;;;;;;15.13;8.80;;;;;;;;;;4974612;28;20046;-66
2022/05/03 02:54:18;;;;;;;11.10;7.22;;;;;;;;;;4962611;28;20049;-66
2022/05/03 02:56:45;;;;;;;10.77;7.05;;;;;;;;;;4963592;28;20057;-66
2022/05/03 03:02:38;;;;;;;12.00;7.13;;;;;;;;;;4969824;28;20175;-66
2022/05/03 03:05:07;;;;;;;;;;;;;;;;;;4954858;28;20049;-66
2022/05/03 03:07:56;;;;;;;;;;;;;;;;;;;;;
2022/05/03 03:10:29;;;;;;;11.27;7.18;;;;;;;;;;4992354;28;20490;-66
2022/05/03 03:13:26;;;;;;;11.07;7.30;;;;;;;;;;5023567;28;20041;-66
2022/05/03 03:15:54;;;;;;;12.52;9.00;;;;;;;;;;5036797;28;20048;-66
2022/05/03 03:18:23;;;;;;;9.75;7.82;;;;;;;;;;5019307;28;20052;-66
2022/05/03 03:20:58;;;;;;;13.48;8.90;;;;;;;;;;5033949;28;20041;-66
2022/05/03 03:23:34;;;;;;;14.10;9.90;;;;;;;;;;4988531;28;20076;-66
2022/05/03 03:26:12;;;;;;;13.20;9.27;;;;;;;;;;5022720;28;20089;-66
2022/05/03 03:28:40;;;;;;;15.57;10.50;;;;;;;;;;5014940;28;20465;-66
2022/05/03 03:31:12;;;;;;;14.63;9.80;;;;;;;;;;5033522;28;20061;-66
2022/05/03 03:34:29;;;;;;;13.60;9.68;;;;;;;;;;5024133;28;20572;-66
2022/05/03 03:37:02;;;;;;;14.23;9.93;;;;;;;;;;5029534;28;20135;-66
2022/05/03 03:39:39;;;;;;;13.52;8.98;;;;;;;;;;5022596;28;20052;-67
2022/05/03 03:42:17;;;;;;;15.45;9.75;;;;;;;;;;5030969;28;20053;-65
2022/05/03 03:44:56;;;;;;;11.73;8.73;;;;;;;;;;5043138;28;20037;-66
2022/05/03 03:47:54;;;;;;;10.35;7.97;;;;;;;;;;4986858;28;20049;-66
2022/05/03 03:50:27;;;;;;;11.88;7.88;;;;;;;;;;5016458;28;20386;-66
2022/05/03 03:52:57;;;;;;;13.80;7.75;;;;;;;;;;5043959;28;20060;-66
2022/05/03 03:55:42;;;;;;;11.32;7.85;;;;;;;;;;5026017;28;20033;-66
2022/05/03 03:58:24;;;;;;;13.45;8.85;;;;;;;;;;5000863;28;20049;-66
2022/05/03 04:01:22;;;;;;;11.63;8.18;;;;;;;;;;5040133;28;20094;-66
2022/05/03 04:03:51;;;;;;;9.98;7.50;;;;;;;;;;5031895;28;20493;-66
2022/05/03 04:09:56;;;;;;;10.93;7.95;;;;;;;;;;5015263;28;20056;-66
2022/05/03 04:12:43;;;;;;;14.40;6.95;;;;;;;;;;5019337;28;20037;-66
2022/05/03 04:15:15;;;;;;;9.80;7.63;;;;;;;;;;5021262;28;20037;-66
2022/05/03 04:17:44;;;;;;;11.85;8.23;;;;;;;;;;5024844;28;20076;-66
2022/05/03 04:20:21;;;;;;;10.23;7.68;;;;;;;;;;5034693;28;20138;-66
2022/05/03 04:22:52;;;;;;;11.45;8.27;;;;;;;;;;5028147;28;20139;-66
2022/05/03 04:25:24;;;;;;;13.05;9.05;;;;;;;;;;5033542;28;20033;-65
2022/05/03 04:27:58;;;;;;;8.18;7.22;;;;;;;;;;5040051;28;20057;-65
2022/05/03 04:30:30;;;;;;;10.18;7.72;;;;;;;;;;5038158;28;20037;-66
2022/05/03 04:33:14;;;;;;;11.70;8.27;;;;;;;;;;5037202;28;20084;-66
2022/05/03 04:35:52;;;;;;;11.13;8.60;;;;;;;;;;5021276;28;20056;-66
2022/05/03 04:38:39;;;;;;;11.38;9.20;;;;;;;;;;5020341;28;20033;-66
2022/05/03 04:44:27;;;;;;;13.15;8.48;;;;;;;;;;5051018;28;20049;-66
2022/05/03 04:46:56;;;;;;;12.32;9.13;;;;;;;;;;5048815;28;20033;-66
2022/05/03 04:49:24;;;;;;;11.13;8.32;;;;;;;;;;5040659;28;20087;-66
2022/05/03 04:52:01;;;;;;;13.45;8.35;;;;;;;;;;5043075;28;20367;-66
2022/05/03 04:54:27;;;;;;;10.68;8.40;;;;;;;;;;5044973;28;20052;-66
2022/05/03 04:57:04;;;;;;;9.50;8.27;;;;;;;;;;5020460;28;20041;-66
2022/05/03 04:59:38;;;;;;;11.95;8.40;;;;;;;;;;5040682;28;20049;-66
2022/05/03 05:02:09;;;;;;;10.73;8.15;;;;;;;;;;5050493;28;20060;-64
2022/05/03 05:04:44;;;;;;;10.38;8.15;;;;;;;;;;5048889;28;20073;-63
2022/05/03 05:07:13;;;;;;;11.55;7.82;;;;;;;;;;5046160;28;20762;-63
2022/05/03 05:12:48;;;;;;;10.68;8.38;;;;;;;;;;5030558;28;20176;-67
2022/05/03 05:15:14;;;;;;;11.65;8.85;;;;;;;;;;5022843;28;20051;-66
2022/05/03 05:17:45;;;;;;;9.68;7.75;;;;;;;;;;5034882;28;20036;-67
2022/05/03 05:20:29;;;;;;;10.00;7.90;;;;;;;;;;5040693;28;20052;-66
2022/05/03 05:23:01;;;;;;;9.35;7.13;;;;;;;;;;5017264;28;20076;-66
2022/05/03 05:25:46;;;;;;;9.27;7.57;;;;;;;;;;5026706;28;20041;-66
2022/05/03 05:28:16;;;;;;;10.57;8.68;;;;;;;;;;5033072;28;20383;-64
2022/05/03 05:30:54;;;;;;;12.82;8.73;;;;;;;;;;5033173;28;20485;-64
2022/05/03 05:33:26;;;;;;;11.48;8.68;;;;;;;;;;5016724;28;20052;-64
2022/05/03 05:36:05;;;;;;;9.32;7.85;;;;;;;;;;5033314;28;20393;-64
2022/05/03 05:38:34;;;;;;;11.25;8.48;;;;;;;;;;5015487;28;20056;-63
2022/05/03 05:41:11;;;;;;;13.13;8.85;;;;;;;;;;5016727;28;20490;-63
2022/05/03 05:43:55;;;;;;;13.52;9.05;;;;;;;;;;5018870;28;20041;-63
2022/05/03 05:46:36;;;;;;;11.57;9.23;;;;;;;;;;5031098;28;20477;-63
2022/05/03 05:49:04;;;;;;;11.68;9.43;;;;;;;;;;5016881;28;20080;-63
2022/05/03 05:53:31;;;;;;;12.90;9.55;;;;;;;;;;5031173;28;20120;-63
2022/05/03 05:54:46;;;;;;;11.65;8.95;;;;;;;;;;5024085;28;20042;-64
2022/05/03 05:57:23;;;;;;;10.52;8.98;;;;;;;;;;5033920;28;20084;-64
2022/05/03 05:59:57;;;;;;;12.20;10.10;;;;;;;;;;5033477;28;20100;-64
2022/05/03 06:02:39;;;;;;;15.77;10.77;;;;;;;;;;5015793;28;20095;-64
2022/05/03 06:05:08;;;;;;;13.55;10.38;;;;;;;;;;5016528;28;20045;-64
2022/05/03 06:10:49;;;;;;;16.67;12.45;;;;;;;;;;5009241;28;20174;-64
2022/05/03 06:13:35;;;;;;;18.08;12.70;;;;;;;;;;5033212;28;20133;-63
2022/05/03 06:16:04;;;;;;;;;;;;;;;;;;5016728;28;20132;-63
2022/05/03 06:18:36;;;;;;;17.73;13.43;;;;;;;;;;5016129;28;19920;-63
2022/05/03 06:21:11;;;;;;;18.40;14.55;;;;;;;;;;5016637;28;20054;-64
2022/05/03 06:23:44;;;;;;;19.42;14.70;;;;;;;;;;5031860;28;20537;-63
2022/05/03 06:26:28;;;;;;;23.48;17.15;;;;;;;;;;5015209;28;20052;-64
2022/05/03 06:29:08;;;;;;;22.95;18.05;;;;;;;;;;5025206;28;20084;-64
2022/05/03 06:31:44;;;;;;;22.40;16.73;;;;;;;;;;5021593;28;20607;-64
2022/05/03 06:34:13;;;;;;;23.77;17.83;;;;;;;;;;5021371;28;20076;-64
2022/05/03 06:36:40;;;;;;;26.23;19.42;;;;;;;;;;5041853;28;20116;-64
2022/05/03 06:39:15;;;;;;;29.50;20.52;;;;;;;;;;5025357;28;20041;-64
2022/05/03 06:41:41;;;;;;;30.92;21.70;;;;;;;;;;5022774;28;20041;-64
2022/05/03 06:44:31;;;;;;;30.92;21.48;;;;;;;;;;5042196;28;20037;-64
2022/05/03 06:47:00;;;;;;;24.55;18.33;;;;;;;;;;5024247;28;20511;-64
2022/05/03 06:49:35;;;;;;;26.20;18.45;;;;;;;;;;5026841;28;20041;-64
2022/05/03 06:52:16;;;;;;;24.15;17.40;;;;;;;;;;5039089;28;20155;-64
2022/05/03 06:54:48;;;;;;;28.85;19.67;;;;;;;;;;5036943;28;20074;-64
2022/05/03 06:57:14;;;;;;;28.98;18.92;;;;;;;;;;5016701;28;20061;-64
2022/05/03 06:59:53;;;;;;;;;;;;;;;;;;;;;
2022/05/03 07:02:37;;;;;;;33.10;21.75;;;;;;;;;;5016470;28;20052;-64
2022/05/03 07:05:12;;;;;;;30.15;21.42;;;;;;;;;;5036876;28;20080;-64
2022/05/03 07:07:45;;;;;;;31.27;19.90;;;;;;;;;;5017132;28;20439;-64
2022/05/03 07:10:32;;;;;;;41.45;22.33;;;;;;;;;;5034371;28;20143;-64
2022/05/03 07:13:24;;;;;;;32.30;21.30;;;;;;;;;;5030044;28;20063;-63
2022/05/03 07:15:57;;;;;;;34.25;21.50;;;;;;;;;;5034474;28;20139;-63
2022/05/03 07:24:11;;;;;;;32.03;21.90;;;;;;;;;;5035694;28;20496;-64
2022/05/03 07:27:07;;;;;;;44.00;24.75;;;;;;;;;;5043126;28;20501;-65
2022/05/03 07:29:35;;;;;;;41.75;24.02;;;;;;;;;;5032019;28;20067;-65
2022/05/03 07:35:15;;;;;;;53.45;28.25;;;;;;;;;;5033673;28;20041;-65
2022/05/03 07:37:50;;;;;;;53.63;28.48;;;;;;;;;;5036955;28;20049;-65
2022/05/03 07:40:40;;;;;;;53.07;28.47;;;;;;;;;;5011403;28;20041;-65
2022/05/03 07:43:11;;;;;;;64.20;32.45;;;;;;;;;;5014775;28;20049;-64
2022/05/03 07:46:00;;;;;;;68.88;31.48;;;;;;;;;;5030980;28;20053;-64
2022/05/03 07:48:26;;;;;;;73.95;31.60;;;;;;;;;;5040303;28;20044;-64
2022/05/03 07:50:58;;;;;;;71.63;31.70;;;;;;;;;;5024311;28;20052;-65
2022/05/03 07:56:41;;;;;;;72.05;32.33;;;;;;;;;;4978346;28;20521;-65
2022/05/03 07:59:16;;;;;;;67.22;29.60;;;;;;;;;;4982594;28;20054;-65
2022/05/03 08:02:08;;;;;;;69.63;33.30;;;;;;;;;;5006080;28;20423;-65
2022/05/03 08:04:41;;;;;;;73.68;32.03;;;;;;;;;;4995509;28;20058;-64
2022/05/03 08:07:16;;;;;;;76.22;33.65;;;;;;;;;;4987838;28;20046;-64
2022/05/03 08:10:00;;;;;;;98.18;36.80;;;;;;;;;;5008753;28;20104;-64
2022/05/03 08:12:31;;;;;;;97.97;37.53;;;;;;;;;;5004049;28;20388;-65
2022/05/03 08:17:56;;;;;;;82.50;34.92;;;;;;;;;;4996183;28;20087;-65
2022/05/03 08:20:43;;;;;;;73.35;31.10;;;;;;;;;;4976954;28;20058;-65
2022/05/03 08:23:12;;;;;;;79.05;33.25;;;;;;;;;;4987553;28;20050;-65
2022/05/03 08:25:44;;;;;;;83.45;34.42;;;;;;;;;;5037500;28;20038;-65
2022/05/03 08:28:20;;;;;;;71.57;33.03;;;;;;;;;;5024359;28;20045;-65
2022/05/03 08:30:46;;;;;;;67.32;30.55;;;;;;;;;;5033475;28;20037;-65
2022/05/03 08:33:12;;;;;;;69.05;30.38;;;;;;;;;;5025685;28;20040;-65
2022/05/03 08:35:48;;;;;;;;;;;;;;;;;;5050418;28;20400;-65
2022/05/03 08:44:13;;;;;;;53.55;24.65;;;;;;;;;;5050822;28;20124;-65
2022/05/03 08:46:52;;;;;;;43.15;22.63;;;;;;;;;;5035597;28;20049;-65
2022/05/03 08:49:24;;;;;;;40.47;20.45;;;;;;;;;;5017918;28;20095;-64
2022/05/03 08:52:14;;;;;;;32.17;19.63;;;;;;;;;;5021505;28;20061;-64
2022/05/03 08:54:49;;;;;;;31.67;19.65;;;;;;;;;;5043460;28;20076;-65
2022/05/03 08:57:18;;;;;;;30.20;17.52;;;;;;;;;;5046266;28;20037;-65
2022/05/03 08:59:48;;;;;;;27.10;17.13;;;;;;;;;;5022283;28;20601;-65
2022/05/03 09:02:27;;;;;;;34.70;17.58;;;;;;;;;;5040660;28;20489;-64
2022/05/03 09:05:10;;;;;;;29.15;17.80;;;;;;;;;;5030439;28;20047;-65
2022/05/03 09:07:49;;;;;;;28.35;17.52;;;;;;;;;;5039718;28;20063;-65
2022/05/03 09:10:31;;;;;;;28.00;16.55;;;;;;;;;;5027040;28;20053;-65
2022/05/03 09:13:42;;;;;;;27.00;16.35;;;;;;;;;;5034831;28;20056;-65
2022/05/03 09:16:35;;;;;;;22.95;13.90;;;;;;;;;;4933058;29;20114;-65
2022/05/03 09:19:21;;;;;;;24.70;14.52;;;;;;;;;;5021931;28;20092;-65
2022/05/03 09:24:57;;;;;;;26.55;14.23;;;;;;;;;;5033522;28;20045;-65
2022/05/03 09:27:34;;;;;;;18.55;13.10;;;;;;;;;;5049633;28;20106;-65
2022/05/03 09:30:27;;;;;;;20.15;12.45;;;;;;;;;;5030363;28;20076;-65
2022/05/03 09:32:57;;;;;;;21.77;11.95;;;;;;;;;;4995157;28;20050;-65
2022/05/03 09:35:32;;;;;;;20.42;12.23;;;;;;;;;;5001712;28;20153;-65
2022/05/03 09:38:10;;;;;;;23.00;12.45;;;;;;;;;;4976899;28;20085;-65
2022/05/03 09:40:54;;;;;;;17.23;11.40;;;;;;;;;;4980879;28;20108;-65
2022/05/03 09:43:29;;;;;;;15.95;10.88;;;;;;;;;;4993910;28;20060;-65
2022/05/03 09:46:07;;;;;;;20.52;10.93;;;;;;;;;;4991458;28;20038;-65
2022/05/03 09:48:57;;;;;;;19.85;10.55;;;;;;;;;;4994030;28;20050;-65
2022/05/03 09:54:24;;;;;;;14.45;8.30;;;;;;;;;;4981725;28;20104;-65
2022/05/03 09:56:59;;;;;;;18.17;8.20;;;;;;;;;;5004994;28;20030;-65
2022/05/03 09:59:38;;;;;;;13.77;8.15;;;;;;;;;;5007809;28;20469;-65
2022/05/03 10:02:07;;;;;;;10.43;6.68;;;;;;;;;;4997886;28;20061;-65
2022/05/03 10:04:39;;;;;;;10.40;6.45;;;;;;;;;;5024013;28;20045;-65
2022/05/03 10:07:10;;;;;;;13.40;7.55;;;;;;;;;;5028541;28;20400;-65
2022/05/03 10:09:44;;;;;;;12.10;6.88;;;;;;;;;;5047330;28;20179;-65
2022/05/03 10:12:15;;;;;;;13.65;6.75;;;;;;;;;;5040147;28;20048;-65
2022/05/03 10:14:50;;;;;;;11.30;6.78;;;;;;;;;;5025839;28;20049;-65
2022/05/03 10:23:28;;;;;;;;;;;;;;;;;;5043228;28;20042;-65
2022/05/03 10:26:23;;;;;;;15.07;7.43;;;;;;;;;;5019909;28;20327;-65
2022/05/03 10:29:05;;;;;;;12.40;7.22;;;;;;;;;;5032238;28;20136;-65
2022/05/03 10:31:54;;;;;;;15.27;7.57;;;;;;;;;;5042610;28;20034;-65
2022/05/03 10:34:20;;;;;;;;;;;;;;;;;;5038063;28;20420;-65
2022/05/03 10:36:52;;;;;;;18.05;8.07;;;;;;;;;;5030201;28;20335;-65
2022/05/03 10:39:29;;;;;;;19.15;7.57;;;;;;;;;;5018606;28;20494;-65
2022/05/03 10:42:10;;;;;;;18.80;7.93;;;;;;;;;;5029833;28;20489;-65
2022/05/03 10:44:42;;;;;;;19.80;7.82;;;;;;;;;;5025280;28;20151;-65
2022/05/03 10:47:15;;;;;;;16.45;8.10;;;;;;;;;;5041869;28;20049;-65
2022/05/03 10:50:00;;;;;;;18.90;7.90;;;;;;;;;;5034491;28;20043;-65
2022/05/03 10:52:35;;;;;;;20.23;8.45;;;;;;;;;;5044234;28;20041;-65
2022/05/03 10:55:08;;;;;;;17.02;7.70;;;;;;;;;;5039095;28;20049;-64
2022/05/03 10:58:01;;;;;;;18.58;8.00;;;;;;;;;;5034937;28;20061;-65
2022/05/03 11:00:49;;;;;;;17.42;7.50;;;;;;;;;;5038233;28;20559;-64
2022/05/03 11:03:35;;;;;;;23.52;8.43;;;;;;;;;;5005470;28;20041;-66
2022/05/03 11:06:20;;;;;;;18.15;7.90;;;;;;;;;;5018730;28;20053;-65
2022/05/03 11:11:39;;;;;;;21.58;7.93;;;;;;;;;;5018321;28;20037;-65
2022/05/03 11:14:53;;;;;;;19.80;7.68;;;;;;;;;;5008355;28;20489;-65
2022/05/03 11:17:28;;;;;;;16.80;7.20;;;;;;;;;;5026827;28;20045;-65
2022/05/03 11:20:09;;;;;;;22.17;7.60;;;;;;;;;;5029224;28;20578;-65
2022/05/03 11:23:19;;;;;;;21.85;7.80;;;;;;;;;;5019400;28;20061;-65
2022/05/03 11:26:00;;;;;;;18.25;7.82;;;;;;;;;;4999031;28;20045;-65
2022/05/03 11:29:03;;;;;;;22.05;7.28;;;;;;;;;;5031150;28;20085;-65
2022/05/03 11:31:35;;;;;;;21.45;7.82;;;;;;;;;;5029751;28;20042;-65
2022/05/03 11:34:27;;;;;;;16.80;6.70;;;;;;;;;;5017759;28;20041;-65
2022/05/03 11:36:56;;;;;;;14.90;6.78;;;;;;;;;;4978371;28;20087;-65
2022/05/03 11:39:36;;;;;;;18.17;6.70;;;;;;;;;;5040849;28;20040;-65
2022/05/03 11:42:34;;;;;;;16.02;6.18;;;;;;;;;;5020776;28;20048;-65
2022/05/03 11:45:21;;;;;;;17.60;6.57;;;;;;;;;;5009267;28;20124;-65
2022/05/03 11:47:49;;;;;;;17.33;6.00;;;;;;;;;;5030536;28;20061;-65
2022/05/03 11:55:58;;;;;;;14.50;5.72;;;;;;;;;;5030238;28;20116;-65
2022/05/03 11:56:00;;;;;;;19.58;6.22;;;;;;;;;;5026569;28;20045;-66
2022/05/03 11:58:40;;;;;;;16.73;5.88;;;;;;;;;;5023957;28;20053;-65
2022/05/03 12:01:13;;;;;;;17.20;5.40;;;;;;;;;;5022925;28;20049;-65
2022/05/03 12:03:49;;;;;;;14.93;5.75;;;;;;;;;;5016422;28;20071;-65
2022/05/03 12:06:16;;;;;;;15.43;5.32;;;;;;;;;;5039802;28;20041;-65
2022/05/03 12:08:55;;;;;;;11.18;5.45;;;;;;;;;;5028126;28;20134;-65
2022/05/03 12:12:42;;;;;;;16.35;5.80;;;;;;;;;;5039647;28;20064;-65
2022/05/03 12:14:34;;;;;;;15.93;5.88;;;;;;;;;;5026007;28;20050;-65
2022/05/03 12:17:22;;;;;;;14.45;5.35;;;;;;;;;;5035836;28;20052;-65
2022/05/03 12:20:10;;;;;;;13.85;5.03;;;;;;;;;;5042000;28;20038;-65
2022/05/03 12:22:39;;;;;;;17.00;5.20;;;;;;;;;;5046368;28;20488;-65
2022/05/03 12:25:15;;;;;;;14.63;4.40;;;;;;;;;;5018210;28;20041;-65
2022/05/03 12:28:10;;;;;;;12.48;4.60;;;;;;;;;;5024360;28;20037;-65
2022/05/03 12:30:42;;;;;;;11.40;4.38;;;;;;;;;;5023782;28;20049;-65
2022/05/03 12:33:22;;;;;;;14.23;4.63;;;;;;;;;;5039360;28;20036;-65
2022/05/03 12:36:00;;;;;;;11.57;4.28;;;;;;;;;;5000025;28;20081;-65
2022/05/03 12:38:45;;;;;;;19.13;4.85;;;;;;;;;;5038047;28;20047;-65
2022/05/03 12:41:24;;;;;;;12.90;4.32;;;;;;;;;;5012006;28;20053;-65
2022/05/03 12:44:26;;;;;;;17.80;4.18;;;;;;;;;;5004330;28;20106;-65
2022/05/03 12:47:03;;;;;;;14.40;4.10;;;;;;;;;;4944734;29;20728;-65
2022/05/03 12:49:37;;;;;;;12.73;4.00;;;;;;;;;;4937022;29;20046;-65
2022/05/03 12:52:12;;;;;;;14.30;3.92;;;;;;;;;;4918551;29;20051;-65
2022/05/03 12:54:42;;;;;;;10.80;3.90;;;;;;;;;;4973856;28;20260;-64
2022/05/03 13:00:32;;;;;;;8.38;3.08;;;;;;;;;;5020067;28;20049;-64
2022/05/03 13:03:22;;;;;;;10.23;3.58;;;;;;;;;;5015542;28;20049;-64
2022/05/03 13:09:21;;;;;;;11.98;3.47;;;;;;;;;;5006958;28;20080;-65
2022/05/03 13:11:52;;;;;;;9.82;3.28;;;;;;;;;;5020509;28;20048;-65
2022/05/03 13:14:21;;;;;;;10.95;3.38;;;;;;;;;;5044653;28;20087;-64
2022/05/03 13:17:06;;;;;;;9.30;3.25;;;;;;;;;;5020618;28;20042;-64
2022/05/03 13:19:52;;;;;;;8.80;3.03;;;;;;;;;;5025294;28;20069;-64
2022/05/03 13:22:31;;;;;;;8.68;2.70;;;;;;;;;;5041058;28;20056;-64
2022/05/03 13:25:00;;;;;;;10.75;3.58;;;;;;;;;;5042376;28;20114;-64
2022/05/03 13:27:44;;;;;;;10.07;2.92;;;;;;;;;;5027251;28;20073;-65
2022/05/03 13:30:36;;;;;;;7.80;3.08;;;;;;;;;;5019622;28;20069;-65
2022/05/03 13:33:06;;;;;;;10.40;3.20;;;;;;;;;;5026444;28;20381;-65
2022/05/03 13:41:13;;;;;;;9.85;3.20;;;;;;;;;;5023164;28;20055;-65
2022/05/03 13:43:55;;;;;;;10.40;3.20;;;;;;;;;;5018078;28;20093;-65
2022/05/03 13:46:21;;;;;;;8.93;3.15;;;;;;;;;;5018752;28;20132;-65
2022/05/03 13:48:52;;;;;;;9.63;2.80;;;;;;;;;;5043438;28;20049;-64
2022/05/03 13:51:30;;;;;;;7.18;2.95;;;;;;;;;;5031195;28;20045;-64
2022/05/03 13:54:01;;;;;;;10.15;2.92;;;;;;;;;;5029012;28;20121;-65
2022/05/03 13:56:30;;;;;;;11.57;3.00;;;;;;;;;;5039120;28;20037;-65
2022/05/03 13:58:59;;;;;;;6.82;2.65;;;;;;;;;;5023611;28;20125;-65
2022/05/03 14:01:41;;;;;;;10.13;3.28;;;;;;;;;;5045626;28;20029;-65
2022/05/03 14:04:13;;;;;;;10.38;2.70;;;;;;;;;;5026352;28;20136;-65
2022/05/03 14:06:42;;;;;;;8.23;2.92;;;;;;;;;;5047375;28;20122;-64
2022/05/03 14:09:20;;;;;;;6.07;2.47;;;;;;;;;;5043203;28;20041;-64
2022/05/03 14:11:58;;;;;;;5.70;2.58;;;;;;;;;;5034385;28;20392;-65
2022/05/03 14:14:33;;;;;;;5.43;2.70;;;;;;;;;;5042431;28;20065;-65
2022/05/03 14:17:18;;;;;;;7.90;2.75;;;;;;;;;;5026066;28;20056;-65
2022/05/03 14:19:44;;;;;;;8.05;2.67;;;;;;;;;;5037568;28;20033;-63
2022/05/03 14:22:13;;;;;;;7.85;2.72;;;;;;;;;;5026648;28;20045;-65
2022/05/03 14:24:48;;;;;;;8.43;3.00;;;;;;;;;;5034418;28;20394;-64
2022/05/03 14:27:17;;;;;;;7.00;2.45;;;;;;;;;;5035201;28;20445;-64
2022/05/03 14:29:45;;;;;;;7.45;2.45;;;;;;;;;;5040734;28;20061;-66
2022/05/03 14:32:12;;;;;;;5.15;2.63;;;;;;;;;;5019898;28;20077;-65
2022/05/03 14:34:42;;;;;;;6.10;2.47;;;;;;;;;;5036669;28;20398;-65
2022/05/03 14:37:14;;;;;;;11.75;2.83;;;;;;;;;;5038043;28;20534;-65
2022/05/03 14:39:42;;;;;;;8.48;3.05;;;;;;;;;;5014598;28;20118;-65
2022/05/03 14:42:24;;;;;;;7.53;3.22;;;;;;;;;;5028326;28;20045;-65
2022/05/03 14:44:50;;;;;;;5.55;2.47;;;;;;;;;;5023184;28;20382;-65
2022/05/03 14:47:33;;;;;;;8.18;2.28;;;;;;;;;;5018318;28;20390;-65
2022/05/03 14:50:06;;;;;;;7.20;2.70;;;;;;;;;;5040520;28;20042;-65
2022/05/03 14:53:11;;;;;;;7.15;2.33;;;;;;;;;;5024535;28;20057;-65
2022/05/03 15:04:39;;;;;;;9.00;2.60;;;;;;;;;;5015116;28;20136;-65
2022/05/03 15:07:14;;;;;;;6.55;2.42;;;;;;;;;;5042012;28;20103;-65
2022/05/03 15:09:44;;;;;;;7.40;2.40;;;;;;;;;;5018391;28;20069;-66
2022/05/03 15:12:16;;;;;;;9.40;2.83;;;;;;;;;;5038604;28;20142;-66
2022/05/03 15:14:51;;;;;;;7.18;2.58;;;;;;;;;;5015008;28;20393;-66
2022/05/03 15:17:31;;;;;;;13.55;2.63;;;;;;;;;;5038875;28;20405;-65
2022/05/03 15:20:35;;;;;;;9.45;3.05;;;;;;;;;;5015556;28;20100;-65
2022/05/03 15:25:56;;;;;;;7.15;2.53;;;;;;;;;;5026138;28;20079;-66
2022/05/03 15:28:33;;;;;;;7.57;2.58;;;;;;;;;;5020669;28;20117;-65
2022/05/03 15:31:02;;;;;;;8.30;2.40;;;;;;;;;;5017973;28;20053;-65
2022/05/03 15:33:41;;;;;;;7.90;2.85;;;;;;;;;;5024669;28;20474;-65
2022/05/03 15:36:21;;;;;;;6.88;2.53;;;;;;;;;;5020814;28;20045;-65
2022/05/03 15:38:55;;;;;;;6.00;2.42;;;;;;;;;;5027546;28;20516;-65
2022/05/03 15:41:31;;;;;;;8.73;2.40;;;;;;;;;;5025372;28;20130;-65
2022/05/03 15:44:03;;;;;;;9.00;2.47;;;;;;;;;;5003304;28;20045;-65
2022/05/03 15:46:54;;;;;;;9.10;2.75;;;;;;;;;;5036780;28;20041;-65
2022/05/03 15:49:23;;;;;;;8.00;3.10;;;;;;;;;;5021970;28;20050;-66
2022/05/03 15:51:58;;;;;;;6.50;2.47;;;;;;;;;;5018848;28;20034;-66
2022/05/03 15:57:15;;;;;;;10.32;2.92;;;;;;;;;;5037560;28;20083;-66
2022/05/03 15:59:42;;;;;;;10.20;2.80;;;;;;;;;;5020817;28;20048;-66
2022/05/03 16:02:18;;;;;;;7.00;2.67;;;;;;;;;;5006110;28;20062;-65
2022/05/03 16:04:51;;;;;;;9.65;2.50;;;;;;;;;;5019156;28;20052;-65
2022/05/03 16:10:26;;;;;;;9.40;2.78;;;;;;;;;;5010636;28;20029;-66
2022/05/03 16:12:55;;;;;;;7.78;2.40;;;;;;;;;;5019277;28;20053;-66
2022/05/03 16:16:10;;;;;;;10.23;2.80;;;;;;;;;;5016596;28;20137;-65
2022/05/03 16:18:45;;;;;;;8.85;2.25;;;;;;;;;;5018374;28;20053;-65
2022/05/03 16:21:23;;;;;;;8.30;2.40;;;;;;;;;;5033021;28;20504;-65
2022/05/03 16:26:53;;;;;;;9.93;2.35;;;;;;;;;;5013775;28;20131;-65
2022/05/03 16:29:26;;;;;;;9.02;2.58;;;;;;;;;;5017771;28;20061;-65
2022/05/03 16:32:11;;;;;;;9.05;2.67;;;;;;;;;;5039373;28;20493;-65
2022/05/03 16:34:55;;;;;;;10.90;3.00;;;;;;;;;;4985497;28;20081;-65
2022/05/03 16:43:16;;;;;;;10.85;2.80;;;;;;;;;;4970695;28;20582;-65
2022/05/03 16:46:07;;;;;;;8.57;2.50;;;;;;;;;;4963715;28;20042;-65
2022/05/03 16:48:46;;;;;;;6.90;2.50;;;;;;;;;;4929324;28;20133;-65
2022/05/03 16:51:13;;;;;;;7.35;2.63;;;;;;;;;;4955490;28;20047;-66
2022/05/03 16:53:39;;;;;;;7.20;2.70;;;;;;;;;;4950650;28;20468;-66
2022/05/03 16:56:13;;;;;;;6.13;2.28;;;;;;;;;;4955879;28;20482;-65
2022/05/03 16:59:00;;;;;;;8.02;2.25;;;;;;;;;;4954760;28;20066;-65
2022/05/03 17:01:27;;;;;;;8.88;2.40;;;;;;;;;;4948324;28;20066;-65
2022/05/03 17:03:53;;;;;;;7.03;2.75;;;;;;;;;;4951999;28;20055;-65
2022/05/03 17:06:29;;;;;;;7.00;2.45;;;;;;;;;;4982142;28;20057;-66
2022/05/03 17:09:04;;;;;;;;;;;;;;;;;;5013995;28;20561;-65
2022/05/03 17:11:42;;;;;;;5.95;2.42;;;;;;;;;;5041217;28;19917;-65